sensor_id;sensor_type;location;lat;lon;timestamp;pressure;altitude;pressure_sealevel;temperature;humidity
64053;BME280;50299;49.524;8.536;2022-12-18T00:01:17;101851.66;;;-5.91;95.44
64053;BME280;50299;49.524;8.536;2022-12-18T00:03:44;101853.22;;;-6.11;92.16
64053;BME280;50299;49.524;8.536;2022-12-18T00:06:11;101840.59;;;-7.17;86.65
64053;BME280;50299;49.524;8.536;2022-12-18T00:08:37;101845.13;;;-7.88;84.72
64053;BME280;50299;49.524;8.536;2022-12-18T00:11:08;101852.03;;;-7.86;88.29
64053;BME280;50299;49.524;8.536;2022-12-18T00:13:37;101851.69;;;-7.99;85.39
64053;BME280;50299;49.524;8.536;2022-12-18T00:16:07;101841.59;;;-7.10;93.65
64053;BME280;50299;49.524;8.536;2022-12-18T00:18:34;101842.94;;;-6.45;95.67
64053;BME280;50299;49.524;8.536;2022-12-18T00:21:04;101843.00;;;-5.71;100.00
64053;BME280;50299;49.524;8.536;2022-12-18T00:23:31;101845.41;;;-5.11;100.00
64053;BME280;50299;49.524;8.536;2022-12-18T00:26:00;101842.19;;;-4.78;99.24
64053;BME280;50299;49.524;8.536;2022-12-18T00:28:27;101839.31;;;-4.55;98.64
64053;BME280;50299;49.524;8.536;2022-12-18T00:31:05;101849.66;;;-4.59;98.35
64053;BME280;50299;49.524;8.536;2022-12-18T00:33:33;101845.28;;;-4.60;97.94
64053;BME280;50299;49.524;8.536;2022-12-18T00:36:04;101853.78;;;-4.63;97.47
64053;BME280;50299;49.524;8.536;2022-12-18T00:38:32;101860.63;;;-5.03;95.51
64053;BME280;50299;49.524;8.536;2022-12-18T00:40:58;101858.03;;;-5.11;96.55
64053;BME280;50299;49.524;8.536;2022-12-18T00:43:24;101855.81;;;-5.08;97.69
64053;BME280;50299;49.524;8.536;2022-12-18T00:45:51;101855.44;;;-5.70;92.05
64053;BME280;50299;49.524;8.536;2022-12-18T00:48:17;101866.50;;;-6.47;89.05
64053;BME280;50299;49.524;8.536;2022-12-18T00:50:44;101865.31;;;-6.45;88.95
64053;BME280;50299;49.524;8.536;2022-12-18T00:53:11;101875.22;;;-6.68;88.34
64053;BME280;50299;49.524;8.536;2022-12-18T00:55:39;101865.41;;;-6.01;96.68
64053;BME280;50299;49.524;8.536;2022-12-18T00:58:05;101869.47;;;-5.60;98.56
64053;BME280;50299;49.524;8.536;2022-12-18T01:00:32;101874.84;;;-5.60;95.50
64053;BME280;50299;49.524;8.536;2022-12-18T01:02:58;101869.81;;;-5.19;98.77
64053;BME280;50299;49.524;8.536;2022-12-18T01:05:25;101863.63;;;-6.46;85.96
64053;BME280;50299;49.524;8.536;2022-12-18T01:07:53;101863.22;;;-7.04;84.13
64053;BME280;50299;49.524;8.536;2022-12-18T01:10:19;101857.06;;;-7.43;85.07
64053;BME280;50299;49.524;8.536;2022-12-18T01:12:45;101849.13;;;-7.37;86.81
64053;BME280;50299;49.524;8.536;2022-12-18T01:15:13;101839.03;;;-6.81;91.34
64053;BME280;50299;49.524;8.536;2022-12-18T01:17:40;101846.53;;;-6.15;95.21
64053;BME280;50299;49.524;8.536;2022-12-18T01:20:08;101854.13;;;-5.89;95.68
64053;BME280;50299;49.524;8.536;2022-12-18T01:22:35;101850.03;;;-6.15;89.97
64053;BME280;50299;49.524;8.536;2022-12-18T01:25:01;101846.81;;;-5.95;92.38
64053;BME280;50299;49.524;8.536;2022-12-18T01:27:30;101850.31;;;-6.62;84.80
64053;BME280;50299;49.524;8.536;2022-12-18T01:29:59;101846.38;;;-7.60;81.08
64053;BME280;50299;49.524;8.536;2022-12-18T01:32:26;101855.00;;;-6.79;94.11
64053;BME280;50299;49.524;8.536;2022-12-18T01:34:52;101865.03;;;-6.50;92.03
64053;BME280;50299;49.524;8.536;2022-12-18T01:37:18;101866.28;;;-6.23;93.14
64053;BME280;50299;49.524;8.536;2022-12-18T01:39:45;101853.28;;;-6.19;93.28
64053;BME280;50299;49.524;8.536;2022-12-18T01:42:13;101854.97;;;-5.74;96.39
64053;BME280;50299;49.524;8.536;2022-12-18T01:45:03;101874.31;;;-5.56;96.12
64053;BME280;50299;49.524;8.536;2022-12-18T01:47:47;101879.59;;;-5.77;90.22
64053;BME280;50299;49.524;8.536;2022-12-18T01:53:09;101856.34;;;-7.37;85.15
64053;BME280;50299;49.524;8.536;2022-12-18T01:55:47;101855.50;;;-6.61;93.46
64053;BME280;50299;49.524;8.536;2022-12-18T01:58:14;101855.97;;;-6.19;95.09
64053;BME280;50299;49.524;8.536;2022-12-18T02:00:41;101856.06;;;-6.28;90.23
64053;BME280;50299;49.524;8.536;2022-12-18T02:03:08;101870.22;;;-6.71;86.84
64053;BME280;50299;49.524;8.536;2022-12-18T02:05:47;101862.91;;;-7.09;84.91
64053;BME280;50299;49.524;8.536;2022-12-18T02:11:11;101870.00;;;-7.16;88.09
64053;BME280;50299;49.524;8.536;2022-12-18T02:14:01;101881.75;;;-6.86;90.82
64053;BME280;50299;49.524;8.536;2022-12-18T02:16:40;101871.16;;;-7.10;87.14
64053;BME280;50299;49.524;8.536;2022-12-18T02:23:20;101875.72;;;-7.50;87.83
64053;BME280;50299;49.524;8.536;2022-12-18T02:25:26;101880.47;;;-7.29;88.98
64053;BME280;50299;49.524;8.536;2022-12-18T02:28:00;101873.84;;;-7.89;83.98
64053;BME280;50299;49.524;8.536;2022-12-18T02:30:31;101871.75;;;-7.70;86.34
64053;BME280;50299;49.524;8.536;2022-12-18T02:32:59;101868.31;;;-7.48;88.73
64053;BME280;50299;49.524;8.536;2022-12-18T02:35:29;101861.09;;;-6.62;97.71
64053;BME280;50299;49.524;8.536;2022-12-18T02:37:57;101865.25;;;-6.60;96.55
64053;BME280;50299;49.524;8.536;2022-12-18T02:40:25;101855.09;;;-6.35;95.55
64053;BME280;50299;49.524;8.536;2022-12-18T02:42:53;101854.47;;;-6.37;92.03
64053;BME280;50299;49.524;8.536;2022-12-18T02:45:20;101852.06;;;-6.32;91.00
64053;BME280;50299;49.524;8.536;2022-12-18T02:47:48;101843.72;;;-6.60;88.99
64053;BME280;50299;49.524;8.536;2022-12-18T02:50:34;101842.63;;;-6.13;92.68
64053;BME280;50299;49.524;8.536;2022-12-18T02:53:36;101838.97;;;-6.35;89.91
64053;BME280;50299;49.524;8.536;2022-12-18T02:56:21;101832.38;;;-6.32;90.99
64053;BME280;50299;49.524;8.536;2022-12-18T02:58:56;101833.47;;;-5.89;93.12
64053;BME280;50299;49.524;8.536;2022-12-18T03:01:33;101829.13;;;-5.54;97.71
64053;BME280;50299;49.524;8.536;2022-12-18T03:04:16;101832.59;;;-5.23;98.21
64053;BME280;50299;49.524;8.536;2022-12-18T03:06:49;101842.53;;;-5.09;96.77
64053;BME280;50299;49.524;8.536;2022-12-18T03:09:27;101848.72;;;-5.45;94.41
64053;BME280;50299;49.524;8.536;2022-12-18T03:12:01;101859.56;;;-5.23;96.92
64053;BME280;50299;49.524;8.536;2022-12-18T03:15:36;101868.72;;;-6.74;84.69
64053;BME280;50299;49.524;8.536;2022-12-18T03:17:46;101866.94;;;-6.59;90.27
64053;BME280;50299;49.524;8.536;2022-12-18T03:20:19;101859.78;;;-6.14;94.69
64053;BME280;50299;49.524;8.536;2022-12-18T03:22:49;101851.44;;;-5.45;100.00
64053;BME280;50299;49.524;8.536;2022-12-18T03:25:17;101845.59;;;-5.78;89.43
64053;BME280;50299;49.524;8.536;2022-12-18T03:27:48;101837.50;;;-6.37;88.26
64053;BME280;50299;49.524;8.536;2022-12-18T03:30:16;101821.19;;;-7.28;85.25
64053;BME280;50299;49.524;8.536;2022-12-18T03:32:47;101827.84;;;-7.46;85.86
64053;BME280;50299;49.524;8.536;2022-12-18T03:35:21;101848.69;;;-7.48;84.98
64053;BME280;50299;49.524;8.536;2022-12-18T03:37:49;101854.13;;;-6.80;94.29
64053;BME280;50299;49.524;8.536;2022-12-18T03:40:15;101858.19;;;-6.23;95.93
64053;BME280;50299;49.524;8.536;2022-12-18T03:42:58;101854.50;;;-6.07;94.47
64053;BME280;50299;49.524;8.536;2022-12-18T03:45:35;101862.44;;;-5.76;95.46
64053;BME280;50299;49.524;8.536;2022-12-18T03:50:56;101858.16;;;-6.00;88.17
64053;BME280;50299;49.524;8.536;2022-12-18T03:53:32;101855.00;;;-6.79;85.15
64053;BME280;50299;49.524;8.536;2022-12-18T03:56:00;101855.22;;;-6.66;89.34
64053;BME280;50299;49.524;8.536;2022-12-18T03:58:28;101846.50;;;-6.91;86.19
64053;BME280;50299;49.524;8.536;2022-12-18T04:00:59;101858.28;;;-7.23;84.47
64053;BME280;50299;49.524;8.536;2022-12-18T04:03:28;101857.31;;;-8.33;80.59
64053;BME280;50299;49.524;8.536;2022-12-18T04:05:56;101859.31;;;-7.63;88.96
64053;BME280;50299;49.524;8.536;2022-12-18T04:08:24;101852.75;;;-6.53;100.00
64053;BME280;50299;49.524;8.536;2022-12-18T04:10:52;101851.38;;;-5.96;100.00
64053;BME280;50299;49.524;8.536;2022-12-18T04:13:27;101843.06;;;-5.50;100.00
64053;BME280;50299;49.524;8.536;2022-12-18T04:15:54;101843.34;;;-5.09;99.80
64053;BME280;50299;49.524;8.536;2022-12-18T04:18:20;101844.59;;;-4.90;99.73
64053;BME280;50299;49.524;8.536;2022-12-18T04:20:46;101849.56;;;-5.44;97.90
64053;BME280;50299;49.524;8.536;2022-12-18T04:23:13;101855.91;;;-5.67;98.09
64053;BME280;50299;49.524;8.536;2022-12-18T04:25:39;101852.25;;;-5.44;99.64
64053;BME280;50299;49.524;8.536;2022-12-18T04:28:06;101840.38;;;-5.50;97.33
64053;BME280;50299;49.524;8.536;2022-12-18T04:30:32;101837.25;;;-5.17;99.57
64053;BME280;50299;49.524;8.536;2022-12-18T04:32:59;101846.84;;;-4.93;98.70
64053;BME280;50299;49.524;8.536;2022-12-18T04:35:25;101830.94;;;-5.24;97.06
64053;BME280;50299;49.524;8.536;2022-12-18T04:37:51;101834.84;;;-5.93;93.80
64053;BME280;50299;49.524;8.536;2022-12-18T04:40:18;101833.69;;;-6.89;90.66
64053;BME280;50299;49.524;8.536;2022-12-18T04:42:44;101834.88;;;-6.45;92.89
64053;BME280;50299;49.524;8.536;2022-12-18T04:45:11;101840.56;;;-6.63;88.78
64053;BME280;50299;49.524;8.536;2022-12-18T04:47:37;101840.41;;;-6.62;90.23
64053;BME280;50299;49.524;8.536;2022-12-18T04:50:04;101847.63;;;-7.39;84.59
64053;BME280;50299;49.524;8.536;2022-12-18T04:52:31;101841.66;;;-7.58;84.51
64053;BME280;50299;49.524;8.536;2022-12-18T04:54:57;101838.66;;;-7.23;87.21
64053;BME280;50299;49.524;8.536;2022-12-18T04:57:24;101850.69;;;-6.65;92.65
64053;BME280;50299;49.524;8.536;2022-12-18T04:59:50;101845.41;;;-6.82;88.49
64053;BME280;50299;49.524;8.536;2022-12-18T05:02:17;101848.38;;;-6.16;97.24
64053;BME280;50299;49.524;8.536;2022-12-18T05:04:44;101845.03;;;-5.73;97.40
64053;BME280;50299;49.524;8.536;2022-12-18T05:07:10;101844.38;;;-5.61;96.46
64053;BME280;50299;49.524;8.536;2022-12-18T05:09:37;101858.72;;;-5.24;97.98
64053;BME280;50299;49.524;8.536;2022-12-18T05:12:03;101858.00;;;-4.96;98.11
64053;BME280;50299;49.524;8.536;2022-12-18T05:14:32;101862.06;;;-4.64;96.51
64053;BME280;50299;49.524;8.536;2022-12-18T05:16:58;101864.31;;;-4.46;96.97
64053;BME280;50299;49.524;8.536;2022-12-18T05:19:26;101854.84;;;-4.36;95.82
64053;BME280;50299;49.524;8.536;2022-12-18T05:21:53;101857.59;;;-4.29;95.85
64053;BME280;50299;49.524;8.536;2022-12-18T05:24:19;101859.16;;;-4.13;93.93
64053;BME280;50299;49.524;8.536;2022-12-18T05:26:45;101867.28;;;-4.13;93.64
64053;BME280;50299;49.524;8.536;2022-12-18T05:29:12;101867.75;;;-4.31;94.12
64053;BME280;50299;49.524;8.536;2022-12-18T05:31:39;101861.44;;;-4.45;93.64
64053;BME280;50299;49.524;8.536;2022-12-18T05:34:07;101863.81;;;-4.57;95.58
64053;BME280;50299;49.524;8.536;2022-12-18T05:36:33;101864.13;;;-4.66;94.36
64053;BME280;50299;49.524;8.536;2022-12-18T05:39:00;101869.25;;;-4.71;95.54
64053;BME280;50299;49.524;8.536;2022-12-18T05:41:27;101875.13;;;-4.68;96.89
64053;BME280;50299;49.524;8.536;2022-12-18T05:43:53;101865.94;;;-4.73;95.34
64053;BME280;50299;49.524;8.536;2022-12-18T05:46:20;101860.00;;;-4.62;95.64
64053;BME280;50299;49.524;8.536;2022-12-18T05:48:46;101846.06;;;-4.44;95.76
64053;BME280;50299;49.524;8.536;2022-12-18T05:51:16;101844.91;;;-4.29;95.11
64053;BME280;50299;49.524;8.536;2022-12-18T05:53:43;101854.28;;;-3.96;94.91
64053;BME280;50299;49.524;8.536;2022-12-18T05:56:15;101845.72;;;-4.07;94.08
64053;BME280;50299;49.524;8.536;2022-12-18T05:58:42;101846.25;;;-4.18;92.25
64053;BME280;50299;49.524;8.536;2022-12-18T06:01:12;101850.34;;;-4.50;93.97
64053;BME280;50299;49.524;8.536;2022-12-18T06:03:39;101851.47;;;-4.44;95.49
64053;BME280;50299;49.524;8.536;2022-12-18T06:06:35;101856.66;;;-4.43;95.46
64053;BME280;50299;49.524;8.536;2022-12-18T06:09:03;101857.88;;;-4.67;94.25
64053;BME280;50299;49.524;8.536;2022-12-18T06:11:38;101861.66;;;-4.83;94.49
64053;BME280;50299;49.524;8.536;2022-12-18T06:14:05;101855.19;;;-4.67;95.80
64053;BME280;50299;49.524;8.536;2022-12-18T06:16:32;101860.81;;;-5.05;94.31
64053;BME280;50299;49.524;8.536;2022-12-18T06:19:01;101871.63;;;-4.83;94.50
64053;BME280;50299;49.524;8.536;2022-12-18T06:21:28;101865.28;;;-4.76;94.77
64053;BME280;50299;49.524;8.536;2022-12-18T06:23:55;101874.19;;;-4.54;95.61
64053;BME280;50299;49.524;8.536;2022-12-18T06:26:21;101872.28;;;-4.81;92.41
64053;BME280;50299;49.524;8.536;2022-12-18T06:28:53;101872.06;;;-5.01;92.04
64053;BME280;50299;49.524;8.536;2022-12-18T06:31:20;101869.28;;;-5.08;93.37
64053;BME280;50299;49.524;8.536;2022-12-18T06:33:46;101885.44;;;-4.71;95.73
64053;BME280;50299;49.524;8.536;2022-12-18T06:36:13;101888.94;;;-4.56;94.92
64053;BME280;50299;49.524;8.536;2022-12-18T06:38:42;101894.91;;;-4.39;94.47
64053;BME280;50299;49.524;8.536;2022-12-18T06:41:13;101892.50;;;-4.28;94.26
64053;BME280;50299;49.524;8.536;2022-12-18T06:43:40;101893.50;;;-4.29;93.72
64053;BME280;50299;49.524;8.536;2022-12-18T06:46:08;101883.69;;;-4.15;92.60
64053;BME280;50299;49.524;8.536;2022-12-18T06:48:34;101891.53;;;-4.20;92.43
64053;BME280;50299;49.524;8.536;2022-12-18T06:51:01;101900.91;;;-4.37;92.40
64053;BME280;50299;49.524;8.536;2022-12-18T06:53:27;101898.34;;;-4.45;94.45
64053;BME280;50299;49.524;8.536;2022-12-18T06:56:05;101912.72;;;-4.17;93.21
64053;BME280;50299;49.524;8.536;2022-12-18T06:58:36;101919.09;;;-4.24;91.93
64053;BME280;50299;49.524;8.536;2022-12-18T07:01:04;101920.22;;;-4.62;92.17
64053;BME280;50299;49.524;8.536;2022-12-18T07:03:31;101925.47;;;-5.11;91.05
64053;BME280;50299;49.524;8.536;2022-12-18T07:05:58;101923.63;;;-5.85;88.58
64053;BME280;50299;49.524;8.536;2022-12-18T07:08:24;101922.38;;;-6.35;88.00
64053;BME280;50299;49.524;8.536;2022-12-18T07:10:51;101922.50;;;-6.51;91.35
64053;BME280;50299;49.524;8.536;2022-12-18T07:13:21;101918.56;;;-6.86;87.38
64053;BME280;50299;49.524;8.536;2022-12-18T07:15:48;101922.78;;;-6.92;90.72
64053;BME280;50299;49.524;8.536;2022-12-18T07:18:14;101925.63;;;-6.85;88.82
64053;BME280;50299;49.524;8.536;2022-12-18T07:20:40;101924.25;;;-6.35;92.89
64053;BME280;50299;49.524;8.536;2022-12-18T07:23:07;101929.94;;;-5.78;96.39
64053;BME280;50299;49.524;8.536;2022-12-18T07:25:36;101933.59;;;-5.41;96.35
64053;BME280;50299;49.524;8.536;2022-12-18T07:28:03;101934.03;;;-5.96;88.49
64053;BME280;50299;49.524;8.536;2022-12-18T07:30:30;101931.63;;;-6.29;90.23
64053;BME280;50299;49.524;8.536;2022-12-18T07:32:56;101928.09;;;-5.62;92.80
64053;BME280;50299;49.524;8.536;2022-12-18T07:35:22;101934.09;;;-6.42;91.67
64053;BME280;50299;49.524;8.536;2022-12-18T07:37:50;101932.44;;;-5.91;93.60
64053;BME280;50299;49.524;8.536;2022-12-18T07:40:20;101935.44;;;-5.71;94.89
64053;BME280;50299;49.524;8.536;2022-12-18T07:42:46;101918.50;;;-5.94;89.73
64053;BME280;50299;49.524;8.536;2022-12-18T07:45:13;101918.22;;;-6.37;88.32
64053;BME280;50299;49.524;8.536;2022-12-18T07:47:39;101915.81;;;-6.78;85.74
64053;BME280;50299;49.524;8.536;2022-12-18T07:50:07;101914.81;;;-6.77;88.21
64053;BME280;50299;49.524;8.536;2022-12-18T07:52:34;101916.19;;;-6.58;88.46
64053;BME280;50299;49.524;8.536;2022-12-18T07:55:00;101917.28;;;-6.98;85.36
64053;BME280;50299;49.524;8.536;2022-12-18T07:57:26;101924.06;;;-6.80;89.26
64053;BME280;50299;49.524;8.536;2022-12-18T08:00:13;101926.16;;;-7.29;84.11
64053;BME280;50299;49.524;8.536;2022-12-18T08:02:41;101922.28;;;-7.66;81.78
64053;BME280;50299;49.524;8.536;2022-12-18T08:05:08;101935.44;;;-8.28;79.41
64053;BME280;50299;49.524;8.536;2022-12-18T08:07:34;101929.91;;;-8.02;85.15
64053;BME280;50299;49.524;8.536;2022-12-18T08:10:01;101928.69;;;-7.91;87.68
64053;BME280;50299;49.524;8.536;2022-12-18T08:12:27;101929.94;;;-7.55;86.78
64053;BME280;50299;49.524;8.536;2022-12-18T08:14:54;101934.16;;;-7.52;84.46
64053;BME280;50299;49.524;8.536;2022-12-18T08:17:20;101937.19;;;-7.08;91.66
64053;BME280;50299;49.524;8.536;2022-12-18T08:19:46;101935.09;;;-6.97;89.34
64053;BME280;50299;49.524;8.536;2022-12-18T08:22:15;101936.91;;;-6.90;87.92
64053;BME280;50299;49.524;8.536;2022-12-18T08:24:41;101941.16;;;-6.95;86.95
64053;BME280;50299;49.524;8.536;2022-12-18T08:27:07;101942.47;;;-6.91;86.32
64053;BME280;50299;49.524;8.536;2022-12-18T08:29:54;101942.06;;;-6.34;95.28
64053;BME280;50299;49.524;8.536;2022-12-18T08:32:20;101953.56;;;-5.65;100.00
64053;BME280;50299;49.524;8.536;2022-12-18T08:34:47;101947.13;;;-5.19;99.50
64053;BME280;50299;49.524;8.536;2022-12-18T08:37:15;101940.56;;;-4.81;98.06
64053;BME280;50299;49.524;8.536;2022-12-18T08:39:41;101935.97;;;-4.65;96.48
64053;BME280;50299;49.524;8.536;2022-12-18T08:42:08;101915.22;;;-4.43;95.98
64053;BME280;50299;49.524;8.536;2022-12-18T08:44:52;101913.69;;;-4.53;94.54
64053;BME280;50299;49.524;8.536;2022-12-18T08:47:22;101915.22;;;-4.65;95.25
64053;BME280;50299;49.524;8.536;2022-12-18T08:49:48;101915.72;;;-4.55;94.31
64053;BME280;50299;49.524;8.536;2022-12-18T08:52:14;101915.84;;;-4.41;93.32
64053;BME280;50299;49.524;8.536;2022-12-18T08:54:41;101921.81;;;-4.46;91.93
64053;BME280;50299;49.524;8.536;2022-12-18T08:57:07;101915.34;;;-4.52;93.15
64053;BME280;50299;49.524;8.536;2022-12-18T08:59:33;101903.38;;;-4.42;92.77
64053;BME280;50299;49.524;8.536;2022-12-18T09:02:00;101896.56;;;-4.38;93.20
64053;BME280;50299;49.524;8.536;2022-12-18T09:04:26;101900.47;;;-4.84;91.21
64053;BME280;50299;49.524;8.536;2022-12-18T09:06:55;101892.63;;;-4.79;91.34
64053;BME280;50299;49.524;8.536;2022-12-18T09:09:22;101890.72;;;-4.85;91.72
64053;BME280;50299;49.524;8.536;2022-12-18T09:11:48;101889.09;;;-5.52;88.62
64053;BME280;50299;49.524;8.536;2022-12-18T09:14:14;101880.59;;;-5.34;91.99
64053;BME280;50299;49.524;8.536;2022-12-18T09:16:40;101882.16;;;-5.24;90.73
64053;BME280;50299;49.524;8.536;2022-12-18T09:19:08;101883.78;;;-5.45;89.11
64053;BME280;50299;49.524;8.536;2022-12-18T09:21:39;101882.78;;;-5.88;88.04
64053;BME280;50299;49.524;8.536;2022-12-18T09:24:12;101889.25;;;-5.53;91.86
64053;BME280;50299;49.524;8.536;2022-12-18T09:26:39;101894.22;;;-5.06;91.88
64053;BME280;50299;49.524;8.536;2022-12-18T09:29:08;101898.13;;;-4.72;93.86
64053;BME280;50299;49.524;8.536;2022-12-18T09:31:36;101907.38;;;-4.60;93.09
64053;BME280;50299;49.524;8.536;2022-12-18T09:34:06;101903.50;;;-4.29;93.32
64053;BME280;50299;49.524;8.536;2022-12-18T09:36:35;101899.88;;;-4.15;92.52
64053;BME280;50299;49.524;8.536;2022-12-18T09:39:02;101905.69;;;-3.90;91.45
64053;BME280;50299;49.524;8.536;2022-12-18T09:41:43;101909.97;;;-3.67;90.53
64053;BME280;50299;49.524;8.536;2022-12-18T09:44:23;101912.19;;;-3.43;89.60
64053;BME280;50299;49.524;8.536;2022-12-18T09:49:52;101929.94;;;-3.34;89.26
64053;BME280;50299;49.524;8.536;2022-12-18T09:52:35;101934.81;;;-3.57;89.85
64053;BME280;50299;49.524;8.536;2022-12-18T09:55:24;101940.06;;;-3.42;89.52
64053;BME280;50299;49.524;8.536;2022-12-18T09:58:05;101936.53;;;-3.43;89.48
64053;BME280;50299;49.524;8.536;2022-12-18T10:00:32;101942.16;;;-3.44;89.23
64053;BME280;50299;49.524;8.536;2022-12-18T10:03:13;101941.34;;;-3.38;89.98
64053;BME280;50299;49.524;8.536;2022-12-18T10:06:02;101942.94;;;-3.51;90.27
64053;BME280;50299;49.524;8.536;2022-12-18T10:08:45;101944.81;;;-3.51;90.51
64053;BME280;50299;49.524;8.536;2022-12-18T10:14:08;101920.63;;;-3.59;90.26
64053;BME280;50299;49.524;8.536;2022-12-18T10:16:59;101931.28;;;-3.51;90.52
64053;BME280;50299;49.524;8.536;2022-12-18T10:19:40;101931.19;;;-3.36;90.84
64053;BME280;50299;49.524;8.536;2022-12-18T10:23:22;101929.41;;;-3.16;88.86
64053;BME280;50299;49.524;8.536;2022-12-18T10:25:23;101938.66;;;-2.90;89.49
64053;BME280;50299;49.524;8.536;2022-12-18T10:27:57;101938.00;;;-2.99;88.32
64053;BME280;50299;49.524;8.536;2022-12-18T10:30:26;101933.22;;;-2.97;87.97
64053;BME280;50299;49.524;8.536;2022-12-18T10:32:52;101932.84;;;-2.81;88.32
64053;BME280;50299;49.524;8.536;2022-12-18T10:35:23;101922.41;;;-2.90;88.58
64053;BME280;50299;49.524;8.536;2022-12-18T10:40:58;101915.53;;;-2.93;88.52
64053;BME280;50299;49.524;8.536;2022-12-18T10:43:27;101906.22;;;-2.84;88.72
64053;BME280;50299;49.524;8.536;2022-12-18T10:48:53;101896.91;;;-2.41;87.34
64053;BME280;50299;49.524;8.536;2022-12-18T10:51:23;101898.56;;;-2.27;86.88
64053;BME280;50299;49.524;8.536;2022-12-18T10:53:56;101903.56;;;-2.24;86.88
64053;BME280;50299;49.524;8.536;2022-12-18T10:56:24;101904.41;;;-2.37;86.94
64053;BME280;50299;49.524;8.536;2022-12-18T10:59:02;101903.19;;;-2.34;89.77
64053;BME280;50299;49.524;8.536;2022-12-18T11:01:50;101905.13;;;-2.96;89.91
64053;BME280;50299;49.524;8.536;2022-12-18T11:04:23;101900.50;;;-3.09;90.50
64053;BME280;50299;49.524;8.536;2022-12-18T11:07:06;101899.16;;;-3.26;91.21
64053;BME280;50299;49.524;8.536;2022-12-18T11:09:35;101902.38;;;-3.09;90.96
64053;BME280;50299;49.524;8.536;2022-12-18T11:12:05;101914.09;;;-2.95;90.20
64053;BME280;50299;49.524;8.536;2022-12-18T11:14:50;101909.13;;;-2.79;89.98
64053;BME280;50299;49.524;8.536;2022-12-18T11:17:25;101906.88;;;-2.62;89.09
64053;BME280;50299;49.524;8.536;2022-12-18T11:20:29;101910.41;;;-2.74;89.20
64053;BME280;50299;49.524;8.536;2022-12-18T11:23:05;101907.75;;;-3.16;89.92
64053;BME280;50299;49.524;8.536;2022-12-18T11:25:37;101897.50;;;-3.27;91.04
64053;BME280;50299;49.524;8.536;2022-12-18T11:28:25;101899.34;;;-2.73;90.33
64053;BME280;50299;49.524;8.536;2022-12-18T11:34:17;101897.63;;;-2.94;89.58
64053;BME280;50299;49.524;8.536;2022-12-18T11:36:55;101904.75;;;-2.80;90.58
64053;BME280;50299;49.524;8.536;2022-12-18T11:42:01;101903.00;;;-3.07;90.47
64053;BME280;50299;49.524;8.536;2022-12-18T11:47:15;101898.72;;;-2.88;91.15
64053;BME280;50299;49.524;8.536;2022-12-18T11:49:47;101896.41;;;-2.85;90.75
64053;BME280;50299;49.524;8.536;2022-12-18T11:52:25;101881.50;;;-2.41;90.08
64053;BME280;50299;49.524;8.536;2022-12-18T11:54:58;101864.41;;;-2.28;88.04
64053;BME280;50299;49.524;8.536;2022-12-18T11:57:34;101876.06;;;-2.01;89.99
64053;BME280;50299;49.524;8.536;2022-12-18T12:00:16;101873.09;;;-2.92;86.43
64053;BME280;50299;49.524;8.536;2022-12-18T12:05:47;101884.16;;;-4.05;89.07
64053;BME280;50299;49.524;8.536;2022-12-18T12:08:44;101884.81;;;-3.68;90.10
64053;BME280;50299;49.524;8.536;2022-12-18T12:11:48;101883.06;;;-2.99;90.22
64053;BME280;50299;49.524;8.536;2022-12-18T12:14:52;101881.91;;;-2.24;93.20
64053;BME280;50299;49.524;8.536;2022-12-18T12:17:55;101879.59;;;-1.87;91.69
64053;BME280;50299;49.524;8.536;2022-12-18T12:29:09;101867.06;;;-3.49;88.30
64053;BME280;50299;49.524;8.536;2022-12-18T12:37:42;101850.50;;;-6.87;81.02
64053;BME280;50299;49.524;8.536;2022-12-18T12:40:17;101851.69;;;-6.29;89.67
64053;BME280;50299;49.524;8.536;2022-12-18T12:45:56;101865.69;;;-5.15;94.28
64053;BME280;50299;49.524;8.536;2022-12-18T12:48:43;101858.47;;;-6.18;86.47
64053;BME280;50299;49.524;8.536;2022-12-18T12:51:17;101855.91;;;-7.18;82.51
64053;BME280;50299;49.524;8.536;2022-12-18T12:53:45;101841.78;;;-7.12;84.55
64053;BME280;50299;49.524;8.536;2022-12-18T12:56:15;101844.34;;;-6.95;84.48
64053;BME280;50299;49.524;8.536;2022-12-18T12:58:58;101826.13;;;-6.47;86.51
64053;BME280;50299;49.524;8.536;2022-12-18T13:01:41;101822.34;;;-7.92;83.59
64053;BME280;50299;49.524;8.536;2022-12-18T13:04:21;101825.91;;;-6.61;91.00
64053;BME280;50299;49.524;8.536;2022-12-18T13:20:35;101793.84;;;-6.62;91.37
64053;BME280;50299;49.524;8.536;2022-12-18T13:31:01;101792.72;;;-7.14;87.47
64053;BME280;50299;49.524;8.536;2022-12-18T13:38:44;101799.47;;;-5.39;94.70
64053;BME280;50299;49.524;8.536;2022-12-18T13:43:45;101779.34;;;-4.51;93.83
64053;BME280;50299;49.524;8.536;2022-12-18T13:46:29;101780.31;;;-4.58;90.12
64053;BME280;50299;49.524;8.536;2022-12-18T13:49:03;101786.47;;;-4.92;86.73
64053;BME280;50299;49.524;8.536;2022-12-18T13:51:33;101782.56;;;-4.90;87.86
64053;BME280;50299;49.524;8.536;2022-12-18T13:54:02;101787.16;;;-4.34;92.63
64053;BME280;50299;49.524;8.536;2022-12-18T13:56:33;101783.88;;;-3.88;94.95
64053;BME280;50299;49.524;8.536;2022-12-18T13:59:12;101774.59;;;-3.72;93.92
64053;BME280;50299;49.524;8.536;2022-12-18T14:01:53;101781.28;;;-2.94;99.81
64053;BME280;50299;49.524;8.536;2022-12-18T14:04:29;101778.16;;;-3.72;91.21
64053;BME280;50299;49.524;8.536;2022-12-18T14:07:07;101780.22;;;-3.74;92.75
64053;BME280;50299;49.524;8.536;2022-12-18T14:09:42;101782.28;;;-3.76;91.91
64053;BME280;50299;49.524;8.536;2022-12-18T14:12:22;101781.75;;;-3.52;92.26
64053;BME280;50299;49.524;8.536;2022-12-18T14:17:54;101772.38;;;-3.56;91.39
64053;BME280;50299;49.524;8.536;2022-12-18T14:20:22;101772.50;;;-3.77;90.94
64053;BME280;50299;49.524;8.536;2022-12-18T14:22:50;101775.13;;;-3.97;91.18
64053;BME280;50299;49.524;8.536;2022-12-18T14:25:23;101776.38;;;-3.99;90.76
64053;BME280;50299;49.524;8.536;2022-12-18T14:27:51;101767.84;;;-3.96;91.18
64053;BME280;50299;49.524;8.536;2022-12-18T14:30:51;101766.84;;;-3.95;91.25
64053;BME280;50299;49.524;8.536;2022-12-18T14:33:20;101774.13;;;-3.89;91.40
64053;BME280;50299;49.524;8.536;2022-12-18T14:36:01;101782.88;;;-4.22;90.89
64053;BME280;50299;49.524;8.536;2022-12-18T14:41:12;101782.34;;;-4.88;92.93